createdAt,value
2022-10-31T00:01:23.271Z,23.90
2022-10-31T00:16:24.736Z,23.90
2022-10-31T00:31:26.197Z,23.80
2022-10-31T00:46:27.655Z,23.80
2022-10-31T01:01:29.238Z,23.80
2022-10-31T01:16:30.771Z,23.80
2022-10-31T01:31:32.225Z,23.70
2022-10-31T01:46:33.709Z,23.70
2022-10-31T02:01:35.239Z,23.70
2022-10-31T02:16:36.761Z,23.70
2022-10-31T02:31:38.258Z,23.60
2022-10-31T02:46:39.719Z,23.60
2022-10-31T03:01:41.216Z,23.60
2022-10-31T03:16:42.758Z,23.50
2022-10-31T03:31:44.209Z,23.50
2022-10-31T03:46:45.665Z,23.50
2022-10-31T04:01:47.359Z,23.50
2022-10-31T04:16:48.976Z,23.50
2022-10-31T04:31:50.439Z,23.50
2022-10-31T04:46:51.897Z,23.40
2022-10-31T05:01:53.409Z,23.40
2022-10-31T05:16:54.955Z,23.40
2022-10-31T05:31:56.396Z,23.30
2022-10-31T05:46:57.847Z,23.30
2022-10-31T06:01:59.316Z,23.30
2022-10-31T06:17:00.765Z,23.30
2022-10-31T06:32:02.224Z,23.20
2022-10-31T06:47:03.664Z,23.20
2022-10-31T07:02:05.202Z,23.20
2022-10-31T07:17:06.737Z,23.20
2022-10-31T07:32:08.178Z,23.10
2022-10-31T07:47:09.625Z,23.20
2022-10-31T08:02:11.114Z,23.30
2022-10-31T08:17:12.551Z,23.30
2022-10-31T08:32:13.999Z,23.50
2022-10-31T08:47:15.468Z,23.60
2022-10-31T09:17:42.962Z,24.00
2022-10-31T09:32:44.407Z,24.20
2022-10-31T09:47:45.872Z,24.50
2022-10-31T10:02:47.328Z,24.60
2022-10-31T10:17:48.878Z,24.50
2022-10-31T10:32:52.060Z,24.50
2022-10-31T10:47:53.736Z,24.80
2022-10-31T11:02:55.188Z,25.00
2022-10-31T11:17:56.677Z,25.20
2022-10-31T11:32:58.404Z,26.20
2022-10-31T11:48:00.309Z,26.60
2022-10-31T12:03:02.235Z,26.40
2022-10-31T12:18:03.972Z,27.20
2022-10-31T12:33:05.447Z,27.60
2022-10-31T12:48:06.898Z,26.90
2022-10-31T13:03:08.381Z,26.60
2022-10-31T13:18:09.836Z,26.60
2022-10-31T13:33:13.889Z,26.30
2022-10-31T13:48:15.354Z,26.10
2022-10-31T14:03:23.013Z,26.00
2022-10-31T14:18:32.368Z,25.80
2022-10-31T14:33:33.811Z,25.60
2022-10-31T14:48:35.286Z,25.40
2022-10-31T15:03:36.750Z,25.20
2022-10-31T15:18:38.203Z,25.20
2022-10-31T15:33:43.801Z,25.10
2022-10-31T15:48:48.571Z,24.90
2022-10-31T16:03:50.052Z,24.90
2022-10-31T16:18:51.531Z,24.70
2022-10-31T16:33:52.995Z,24.60
2022-10-31T16:48:54.455Z,24.50
2022-10-31T17:03:55.939Z,24.40
2022-10-31T17:18:57.481Z,24.30
2022-10-31T17:34:02.277Z,24.20
2022-10-31T17:49:04.927Z,24.20
2022-10-31T18:04:06.380Z,24.20
2022-10-31T18:19:07.844Z,24.10
2022-10-31T18:34:09.323Z,24.00
2022-10-31T18:49:10.790Z,24.00
2022-10-31T19:04:12.249Z,24.00
2022-10-31T19:19:13.711Z,23.90
2022-10-31T19:34:15.164Z,23.90
2022-10-31T19:49:16.609Z,23.90
2022-10-31T20:04:18.083Z,23.80
2022-10-31T20:19:19.534Z,23.70
2022-10-31T20:34:21.006Z,23.70
2022-10-31T20:49:22.516Z,23.70
2022-10-31T21:04:23.972Z,23.60
2022-10-31T21:19:25.432Z,23.60
2022-10-31T21:34:26.905Z,23.60
2022-10-31T21:49:28.359Z,23.50
2022-10-31T22:04:29.824Z,23.50
2022-10-31T22:19:31.500Z,23.50
2022-10-31T22:34:32.958Z,23.50
2022-10-31T22:49:34.416Z,23.40
2022-10-31T23:04:35.858Z,23.40
2022-10-31T23:19:37.316Z,23.40
2022-10-31T23:34:38.804Z,23.40
2022-10-31T23:49:40.289Z,23.40
